Saint Augustine, FL

1:03 PM EDT on September 16, 2014 (GMT -0400)
Crescent Beach | Change Station
CLOSE
Current Station
Personal Weather Station
Location: St. Augustine, FL
Elevation: 7 ft
Nearby Weather Stations

Elev 7 ft 29.78 °N, 81.26 °W | Updated 26 seconds ago

Partly Cloudy
Partly Cloudy
84.1 °F
Feels Like 82 °F
N
3.0
Wind Variable Wind from West
Gusts 9.0 mph

Today
High -- | Low -- °F
--% Chance of Precip.
Yesterday
High -- | Low -- °F
Precip. -- in
7:10 AM 7:29 PM
Last Quarter, 44% visible
Pressure 30.04 in
Visibility 10.0 miles
Clouds Few 10000 ft
Heat Index 82 °F
Dew Point Not available.
Humidity Not available.
Rainfall 0.00 in
Snow Depth Not available.
UV 12 out of 12
Pollen 4.60 out of 12
Ozone Good
PM2.5 Moderate
Flu Activity Not available.
METAR KSGJ 161658Z 25008KT 10SM FEW100 28/23 A3004 RMK AO2 LTG DSNT N AND NW SLP171 T02830233

More Conditions Fewer Conditions

Pressure 30.04 in
Visibility 10.0 miles
Clouds Few 10000 ft
Heat Index 82 °F
Dew Point Not available.
Humidity Not available.
Rainfall 0.00 in
Snow Depth Not available.
UV 12 out of 12
Pollen 4.60 out of 12
Ozone Good
PM2.5 Moderate
Flu Activity Not available.
METAR KSGJ 161658Z 25008KT 10SM FEW100 28/23 A3004 RMK AO2 LTG DSNT N AND NW SLP171 T02830233

More Conditions Fewer Conditions

10-Day Weather Forecast

Almanac

Astronomy

Sep. 16, 2014 Rise Set
Actual Time 7:10 AM EDT 7:29 PM EDT
Civil Twilight 6:46 AM EDT 7:53 PM EDT
Nautical Twilight 6:18 AM EDT 8:20 PM EDT
Astronomical Twilight 5:50 AM EDT 8:49 PM EDT
Moon 12:37 AM EDT 2:33 PM EDT
Length of Visible Light 13h 06m
Length of Day
12h 18m
Tomorrow will be 1m 47s shorter.
Last Quarter, 44% of the Moon is Illuminated
Today
Last Quarter
Sep 24
New
Oct 1
First Quarter
Oct 8
Full
Oct 15
Last Quarter

Today's Extremes

State Highs State Lows

Community

WunderPhotos

Upload Photos

1,753,832 photos uploaded!

Nearby

Air Quality

  Air Quality AQ Index Pollutant
Yesterday Good
OZONE
Yesterday Good
PM2.5
Current Moderate
PM2.5
Current Good
OZONE
Tuesday Good
OZONE
Tuesday Good
PM2.5

Snow Depth

Station Depth Elevation
No new snow has been reported.

Earthquake Activity

City Distance Mag. Time & Date
No recent earthquake activity has been reported nearby.
Minimum magnitude displayed is 2.5.

Coastal Water Temperatures

Place Temperature
Mayport (Bar Pilots Dock), FL 84.9 °F
Fernandina Beach, FL 86.0 °F
Trident Pier, FL 86.0 °F

Nearby Weather Stations